Time;durP1;ratioP1;P1;durP2;ratioP2;P2;SDS_P1;SDS_P2;PMS_P1;PMS_P2;Temp;Humidity;BMP_temperature;BMP_pressure;BME280_temperature;BME280_humidity;BME280_pressure;Samples;Min_cycle;Max_cycle;Signal;HPM_P1;HPM_P2
2023/10/25 00:00:29;;;;;;;1.70;1.40;;;14.80;99.90;;;;;;4992750;28;20030;-38
2023/10/25 00:02:55;;;;;;;2.42;1.42;;;14.80;99.90;;;;;;4992677;28;20076;-36
2023/10/25 00:05:21;;;;;;;1.75;1.25;;;14.80;99.90;;;;;;4992573;28;20026;-41
2023/10/25 00:07:47;;;;;;;1.13;1.02;;;14.80;99.90;;;;;;4992649;28;20065;-40
2023/10/25 00:10:12;;;;;;;3.10;1.50;;;14.80;99.90;;;;;;4993026;28;20118;-41
2023/10/25 00:12:38;;;;;;;1.85;1.27;;;14.80;99.90;;;;;;4992516;28;20109;-41
2023/10/25 00:15:05;;;;;;;2.30;1.27;;;14.80;99.90;;;;;;4992473;28;20049;-38
2023/10/25 00:17:30;;;;;;;2.22;1.25;;;14.80;99.90;;;;;;4992453;28;20037;-37
2023/10/25 00:19:56;;;;;;;3.85;1.60;;;14.80;99.90;;;;;;4992541;28;20119;-36
2023/10/25 00:22:22;;;;;;;1.77;1.27;;;14.80;99.90;;;;;;4992879;28;20046;-36
2023/10/25 00:24:47;;;;;;;1.70;1.33;;;14.80;99.90;;;;;;4992650;28;20053;-37
2023/10/25 00:27:13;;;;;;;1.83;1.25;;;14.80;99.90;;;;;;4992292;28;20052;-40
2023/10/25 00:29:38;;;;;;;1.95;1.30;;;14.80;99.90;;;;;;4992313;28;20037;-36
2023/10/25 00:32:05;;;;;;;2.65;1.17;;;14.80;99.90;;;;;;4992152;28;20464;-38
2023/10/25 00:34:31;;;;;;;3.03;1.10;;;14.80;99.90;;;;;;4992245;28;20041;-39
2023/10/25 00:36:57;;;;;;;3.03;1.40;;;14.80;99.90;;;;;;4992076;28;20030;-38
2023/10/25 00:39:23;;;;;;;1.80;1.30;;;14.80;99.90;;;;;;4991940;28;20480;-38
2023/10/25 00:41:48;;;;;;;3.28;1.10;;;14.80;99.90;;;;;;4992149;28;20507;-39
2023/10/25 00:44:14;;;;;;;1.48;1.10;;;14.80;99.90;;;;;;4991988;28;20031;-38
2023/10/25 00:46:40;;;;;;;2.83;1.45;;;14.80;99.90;;;;;;4991862;28;20377;-40
2023/10/25 00:49:07;;;;;;;1.52;1.02;;;14.80;99.90;;;;;;4992118;28;20034;-38
2023/10/25 00:51:34;;;;;;;1.80;1.10;;;14.80;99.90;;;;;;4991748;28;20030;-36
2023/10/25 00:54:02;;;;;;;1.52;1.20;;;14.80;99.90;;;;;;4991458;28;20034;-37
2023/10/25 00:56:31;;;;;;;1.38;1.00;;;14.80;99.90;;;;;;4991890;28;20026;-39
2023/10/25 00:58:57;;;;;;;1.70;1.30;;;14.80;99.90;;;;;;4991980;28;20038;-37
2023/10/25 01:01:25;;;;;;;2.33;1.42;;;14.80;99.90;;;;;;4991908;28;20061;-40
2023/10/25 01:03:51;;;;;;;1.40;1.30;;;14.80;99.90;;;;;;4991849;28;20022;-38
2023/10/25 01:06:17;;;;;;;2.25;1.08;;;14.80;99.90;;;;;;4991546;28;20038;-39
2023/10/25 01:08:43;;;;;;;1.88;1.00;;;14.80;99.90;;;;;;4991896;28;20027;-38
2023/10/25 01:11:09;;;;;;;1.40;1.05;;;14.80;99.90;;;;;;4992238;28;20023;-38
2023/10/25 01:13:35;;;;;;;1.58;1.17;;;14.80;99.90;;;;;;4991813;28;20019;-42
2023/10/25 01:16:01;;;;;;;2.42;1.52;;;14.80;99.90;;;;;;4991790;28;20029;-39
2023/10/25 01:18:27;;;;;;;1.60;1.00;;;14.80;99.90;;;;;;4991746;28;20053;-37
2023/10/25 01:20:52;;;;;;;1.45;1.10;;;14.80;99.90;;;;;;4991967;28;20035;-39
2023/10/25 01:23:18;;;;;;;1.70;1.00;;;14.80;99.90;;;;;;4991701;28;20030;-38
2023/10/25 01:25:44;;;;;;;1.13;1.00;;;14.80;99.90;;;;;;4991651;28;20026;-36
2023/10/25 01:28:11;;;;;;;1.17;1.00;;;14.80;99.90;;;;;;4991680;28;20491;-37
2023/10/25 01:30:37;;;;;;;1.98;1.30;;;14.80;99.90;;;;;;4991691;28;20041;-39
2023/10/25 01:33:03;;;;;;;1.40;1.00;;;14.80;99.90;;;;;;4991623;28;20026;-39
2023/10/25 01:35:28;;;;;;;1.40;1.10;;;14.80;99.90;;;;;;4991459;28;20032;-38
2023/10/25 01:37:54;;;;;;;1.98;1.20;;;14.80;99.90;;;;;;4991618;28;20287;-38
2023/10/25 01:40:20;;;;;;;2.00;0.90;;;14.80;99.90;;;;;;4991604;28;20514;-39
2023/10/25 01:42:46;;;;;;;1.60;1.08;;;14.80;99.90;;;;;;4991439;28;20027;-39
2023/10/25 01:45:11;;;;;;;1.73;1.15;;;14.80;99.90;;;;;;4991957;28;20464;-39
2023/10/25 01:47:38;;;;;;;1.27;1.00;;;14.80;99.90;;;;;;4991419;28;20045;-40
2023/10/25 01:50:06;;;;;;;1.25;1.00;;;14.80;99.90;;;;;;4991364;28;20108;-40
2023/10/25 01:52:32;;;;;;;1.55;0.90;;;14.80;99.90;;;;;;4991270;28;20566;-38
2023/10/25 01:54:58;;;;;;;0.80;0.75;;;14.80;99.90;;;;;;4991779;28;20030;-36
2023/10/25 01:57:23;;;;;;;1.42;0.90;;;14.80;99.90;;;;;;4991426;28;20499;-40
2023/10/25 01:59:49;;;;;;;1.00;0.90;;;14.80;99.90;;;;;;4991300;28;20081;-40
2023/10/25 02:02:15;;;;;;;1.98;1.10;;;14.80;99.90;;;;;;4991347;28;20506;-36
2023/10/25 02:04:41;;;;;;;1.40;1.10;;;14.80;99.90;;;;;;4993664;28;20038;-39
2023/10/25 02:07:06;;;;;;;1.00;0.80;;;14.80;99.90;;;;;;4995031;28;20033;-41
2023/10/25 02:09:32;;;;;;;1.50;1.02;;;14.80;99.90;;;;;;4994942;28;20026;-36
2023/10/25 02:11:57;;;;;;;1.58;0.95;;;14.70;99.90;;;;;;4994840;28;20129;-39
2023/10/25 02:14:23;;;;;;;1.60;0.80;;;14.70;99.90;;;;;;4994674;28;20030;-43
2023/10/25 02:16:49;;;;;;;1.08;0.88;;;14.80;99.90;;;;;;4994593;28;20487;-39
2023/10/25 02:19:16;;;;;;;1.30;1.00;;;14.80;99.90;;;;;;4994548;28;20389;-38
2023/10/25 02:21:42;;;;;;;1.15;0.93;;;14.70;99.90;;;;;;4994684;28;20027;-40
2023/10/25 02:24:10;;;;;;;1.23;0.90;;;14.70;99.90;;;;;;4994568;28;20109;-37
2023/10/25 02:26:36;;;;;;;1.30;0.85;;;14.80;99.90;;;;;;4994428;28;20050;-39
2023/10/25 02:29:02;;;;;;;1.10;0.90;;;14.70;99.90;;;;;;4994611;28;20054;-40
2023/10/25 02:31:28;;;;;;;4.63;0.93;;;14.70;99.90;;;;;;4994493;28;20031;-39
2023/10/25 02:33:53;;;;;;;1.17;0.73;;;14.70;99.90;;;;;;4994372;28;20480;-41
2023/10/25 02:36:19;;;;;;;1.23;0.80;;;14.70;99.90;;;;;;4994299;28;20476;-38
2023/10/25 02:38:48;;;;;;;1.92;0.88;;;14.70;99.90;;;;;;4994330;28;20065;-36
2023/10/25 02:41:14;;;;;;;1.38;0.93;;;14.70;99.90;;;;;;4994391;28;20113;-38
2023/10/25 02:43:39;;;;;;;0.95;0.70;;;14.70;99.90;;;;;;4994072;28;20149;-38
2023/10/25 02:46:07;;;;;;;1.10;0.80;;;14.70;99.90;;;;;;4994107;28;20030;-37
2023/10/25 02:48:33;;;;;;;1.17;0.85;;;14.70;99.90;;;;;;4994098;28;20026;-38
2023/10/25 02:51:00;;;;;;;1.15;0.80;;;14.70;99.90;;;;;;4994124;28;20045;-37
2023/10/25 02:53:26;;;;;;;1.27;0.90;;;14.80;99.90;;;;;;4994056;28;20030;-36
2023/10/25 02:56:01;;;;;;;1.05;0.80;;;14.70;99.90;;;;;;4994230;28;20412;-41
2023/10/25 02:58:27;;;;;;;1.25;0.90;;;14.70;99.90;;;;;;4993944;28;20396;-39
2023/10/25 03:00:53;;;;;;;1.38;0.73;;;14.70;99.90;;;;;;4992495;28;20027;-38
2023/10/25 03:03:19;;;;;;;0.80;0.80;;;14.70;99.90;;;;;;4993855;28;20037;-37
2023/10/25 03:05:45;;;;;;;0.95;0.90;;;14.70;99.90;;;;;;4993771;28;20491;-39
2023/10/25 03:08:10;;;;;;;1.00;0.90;;;14.70;99.90;;;;;;4993718;28;20101;-38
2023/10/25 03:10:36;;;;;;;1.13;0.80;;;14.70;99.90;;;;;;4993842;28;20484;-36
2023/10/25 03:13:02;;;;;;;1.52;0.80;;;14.70;99.90;;;;;;4994064;28;20106;-38
2023/10/25 03:15:28;;;;;;;2.28;0.80;;;14.70;99.90;;;;;;4992606;28;20531;-36
2023/10/25 03:17:54;;;;;;;3.30;0.98;;;14.70;99.90;;;;;;4993594;28;20114;-40
2023/10/25 03:20:20;;;;;;;1.42;0.80;;;14.70;99.90;;;;;;4993752;28;20026;-41
2023/10/25 03:22:46;;;;;;;1.02;0.75;;;14.70;99.90;;;;;;4993448;28;20019;-39
2023/10/25 03:25:11;;;;;;;1.08;0.80;;;14.70;99.90;;;;;;4993506;28;20018;-39
2023/10/25 03:27:37;;;;;;;2.15;0.80;;;14.70;99.90;;;;;;4993303;28;20550;-43
2023/10/25 03:30:03;;;;;;;0.82;0.60;;;14.70;99.90;;;;;;4993347;28;20476;-36
2023/10/25 03:32:29;;;;;;;1.10;0.90;;;14.70;99.90;;;;;;4993302;28;20022;-37
2023/10/25 03:34:55;;;;;;;1.08;0.80;;;14.70;99.90;;;;;;4993240;28;20170;-36
2023/10/25 03:37:21;;;;;;;0.93;0.85;;;14.70;99.90;;;;;;4993227;28;20559;-36
2023/10/25 03:39:46;;;;;;;1.38;0.90;;;14.70;99.90;;;;;;4993295;28;20116;-40
2023/10/25 03:42:12;;;;;;;1.20;0.88;;;14.70;99.90;;;;;;4992977;28;20105;-40
2023/10/25 03:44:37;;;;;;;1.10;0.82;;;14.70;99.90;;;;;;4993130;28;20085;-37
2023/10/25 03:47:03;;;;;;;1.77;0.75;;;14.70;99.90;;;;;;4992889;28;20484;-36
2023/10/25 03:49:29;;;;;;;1.30;0.80;;;14.70;99.90;;;;;;4993046;28;20065;-40
2023/10/25 03:51:55;;;;;;;1.95;1.00;;;14.70;99.90;;;;;;4993105;28;20033;-36
2023/10/25 03:54:21;;;;;;;0.95;0.70;;;14.70;99.90;;;;;;4993220;28;20082;-37
2023/10/25 03:56:46;;;;;;;1.15;0.50;;;14.70;99.90;;;;;;4992860;28;20034;-39
2023/10/25 03:59:12;;;;;;;0.95;0.75;;;14.70;99.90;;;;;;4992689;28;20515;-36
2023/10/25 04:01:40;;;;;;;0.88;0.70;;;14.70;99.90;;;;;;4992816;28;20029;-40
2023/10/25 04:04:06;;;;;;;0.90;0.70;;;14.60;99.90;;;;;;4992661;28;20109;-36
2023/10/25 04:06:32;;;;;;;1.15;0.77;;;14.60;99.90;;;;;;4992837;28;20034;-38
2023/10/25 04:08:58;;;;;;;0.85;0.73;;;14.60;99.90;;;;;;4992710;28;20493;-39
2023/10/25 04:11:24;;;;;;;0.77;0.70;;;14.60;99.90;;;;;;4993081;28;20038;-39
2023/10/25 04:13:49;;;;;;;1.08;0.70;;;14.60;99.90;;;;;;4992440;28;20025;-41
2023/10/25 04:16:15;;;;;;;3.15;0.93;;;14.60;99.90;;;;;;4992439;28;20490;-38
2023/10/25 04:18:41;;;;;;;1.95;0.80;;;14.60;99.90;;;;;;4992574;28;20476;-39
2023/10/25 04:21:11;;;;;;;0.95;0.85;;;14.60;99.90;;;;;;4992433;28;20106;-41
2023/10/25 04:23:37;;;;;;;1.60;0.90;;;14.60;99.90;;;;;;4992427;28;20177;-41
2023/10/25 04:26:06;;;;;;;0.95;0.70;;;14.60;99.90;;;;;;4992152;28;20502;-39
2023/10/25 04:28:32;;;;;;;1.55;0.90;;;14.60;99.90;;;;;;4992671;28;20073;-39
2023/10/25 04:30:58;;;;;;;2.88;0.80;;;14.60;99.90;;;;;;4992320;28;20436;-36
2023/10/25 04:33:24;;;;;;;0.60;0.60;;;14.60;99.90;;;;;;4990953;28;20038;-39
2023/10/25 04:35:49;;;;;;;0.88;0.80;;;14.60;99.90;;;;;;4992178;28;20034;-39
2023/10/25 04:38:15;;;;;;;4.15;0.88;;;14.60;99.90;;;;;;4992142;28;20030;-36
2023/10/25 04:40:40;;;;;;;0.82;0.73;;;14.60;99.90;;;;;;4992065;28;20105;-36
2023/10/25 04:43:06;;;;;;;1.50;0.85;;;14.60;99.90;;;;;;4991863;28;20038;-36
2023/10/25 04:45:34;;;;;;;0.82;0.80;;;14.60;99.90;;;;;;4992013;28;20021;-40
2023/10/25 04:48:00;;;;;;;0.90;0.80;;;14.60;99.90;;;;;;4991993;28;20041;-38
2023/10/25 04:50:26;;;;;;;1.00;0.70;;;14.60;99.90;;;;;;4992113;28;20026;-38
2023/10/25 04:52:52;;;;;;;1.08;0.80;;;14.60;99.90;;;;;;4992043;28;20034;-38
2023/10/25 04:55:18;;;;;;;2.35;0.80;;;14.60;99.90;;;;;;4991943;28;20439;-38
2023/10/25 04:57:43;;;;;;;1.20;0.77;;;14.60;99.90;;;;;;4991827;28;20031;-39
2023/10/25 05:00:09;;;;;;;2.65;0.70;;;14.60;99.90;;;;;;4991896;28;20069;-40
2023/10/25 05:02:38;;;;;;;1.13;0.90;;;14.60;99.90;;;;;;4991893;28;20500;-38
2023/10/25 05:05:08;;;;;;;1.00;0.80;;;14.60;99.90;;;;;;4991817;28;20384;-39
2023/10/25 05:07:35;;;;;;;1.13;0.80;;;14.60;99.90;;;;;;4992085;28;20511;-39
2023/10/25 05:10:01;;;;;;;1.30;0.80;;;14.60;99.90;;;;;;4991733;28;20181;-39
2023/10/25 05:12:47;;;;;;;1.00;0.60;;;14.60;99.90;;;;;;4991692;28;20662;-40
2023/10/25 05:15:18;;;;;;;0.80;0.65;;;14.60;99.90;;;;;;4991743;28;20030;-38
2023/10/25 05:17:45;;;;;;;0.93;0.63;;;14.60;99.90;;;;;;4991816;28;20026;-38
2023/10/25 05:20:11;;;;;;;0.90;0.60;;;14.60;99.90;;;;;;4991822;28;20388;-41
2023/10/25 05:22:40;;;;;;;5.38;0.80;;;14.60;99.90;;;;;;4991600;28;20488;-36
2023/10/25 05:25:08;;;;;;;1.15;0.90;;;14.60;99.90;;;;;;4991561;28;20480;-38
2023/10/25 05:27:35;;;;;;;0.90;0.80;;;14.60;99.90;;;;;;4991644;28;20084;-38
2023/10/25 05:30:05;;;;;;;2.45;0.98;;;14.60;99.90;;;;;;4991721;28;20109;-38
2023/10/25 05:32:32;;;;;;;1.10;0.95;;;14.60;99.90;;;;;;4991758;28;20037;-39
2023/10/25 05:35:00;;;;;;;1.20;1.10;;;14.60;99.90;;;;;;4991543;28;20034;-39
2023/10/25 05:37:26;;;;;;;1.20;1.00;;;14.60;99.90;;;;;;4991633;28;20081;-37
2023/10/25 05:39:52;;;;;;;1.10;0.70;;;14.60;99.90;;;;;;4994388;28;20030;-39
2023/10/25 05:42:19;;;;;;;0.95;0.85;;;14.60;99.90;;;;;;4995261;28;20038;-38
2023/10/25 05:44:48;;;;;;;0.82;0.80;;;14.60;99.90;;;;;;4995375;28;20443;-41
2023/10/25 05:47:17;;;;;;;1.80;0.90;;;14.60;99.90;;;;;;4995213;28;20019;-39
2023/10/25 05:49:43;;;;;;;1.33;1.00;;;14.60;99.90;;;;;;4995162;28;20137;-39
2023/10/25 05:52:10;;;;;;;1.45;1.00;;;14.60;99.90;;;;;;4995368;28;20443;-37
2023/10/25 05:54:37;;;;;;;1.60;1.08;;;14.60;99.90;;;;;;4995199;28;20085;-36
2023/10/25 05:57:04;;;;;;;1.40;1.25;;;14.60;99.90;;;;;;4995002;28;20026;-36
2023/10/25 05:59:30;;;;;;;1.35;1.20;;;14.60;99.90;;;;;;4995044;28;20030;-38
2023/10/25 06:02:10;;;;;;;0.90;0.80;;;14.60;99.90;;;;;;4995112;28;20045;-37
2023/10/25 06:04:37;;;;;;;1.08;0.90;;;14.50;99.90;;;;;;4995028;28;20026;-36
2023/10/25 06:07:04;;;;;;;1.42;1.10;;;14.50;99.90;;;;;;4994942;28;20034;-41
2023/10/25 06:09:30;;;;;;;1.23;0.90;;;14.60;99.90;;;;;;4994875;28;20069;-41
2023/10/25 06:11:56;;;;;;;1.50;0.93;;;14.60;99.90;;;;;;4994849;28;20473;-40
2023/10/25 06:14:22;;;;;;;1.35;1.10;;;14.60;99.90;;;;;;4994743;28;20511;-38
2023/10/25 06:16:48;;;;;;;1.08;0.98;;;14.60;99.90;;;;;;4994511;28;20022;-39
2023/10/25 06:19:13;;;;;;;4.97;4.47;;;14.60;99.90;;;;;;4994669;28;20484;-40
2023/10/25 06:21:39;;;;;;;4.18;3.42;;;14.50;99.90;;;;;;4994663;28;20034;-40
2023/10/25 06:24:05;;;;;;;4.57;3.40;;;14.10;99.90;;;;;;4994602;28;20540;-39
2023/10/25 06:26:30;;;;;;;6.20;3.72;;;13.90;99.90;;;;;;4994633;28;20026;-40
2023/10/25 06:28:56;;;;;;;3.60;3.30;;;13.90;99.90;;;;;;4994991;28;20200;-39
2023/10/25 06:31:22;;;;;;;3.58;2.88;;;13.90;99.90;;;;;;4994518;28;20086;-39
2023/10/25 06:33:48;;;;;;;3.30;2.90;;;13.90;99.90;;;;;;4994523;28;20049;-36
2023/10/25 06:36:14;;;;;;;3.30;2.70;;;14.00;99.90;;;;;;4994342;28;20464;-39
2023/10/25 06:38:40;;;;;;;3.55;3.00;;;14.00;99.90;;;;;;4994389;28;20027;-38
2023/10/25 06:41:17;;;;;;;3.25;2.53;;;14.00;99.90;;;;;;4994341;28;20113;-38
2023/10/25 06:43:43;;;;;;;3.38;2.60;;;14.10;99.90;;;;;;4994147;28;20026;-39
2023/10/25 06:46:10;;;;;;;4.38;2.13;;;14.10;99.90;;;;;;4994039;28;20369;-38
2023/10/25 06:48:36;;;;;;;2.97;2.33;;;14.20;99.90;;;;;;4994233;28;20019;-39
2023/10/25 06:51:06;;;;;;;3.15;2.50;;;14.20;99.90;;;;;;4992857;28;20037;-40
2023/10/25 06:53:32;;;;;;;2.13;1.90;;;14.20;99.90;;;;;;4993998;28;20034;-39
2023/10/25 06:55:59;;;;;;;2.30;1.98;;;14.20;99.90;;;;;;4994055;28;20038;-38
2023/10/25 06:58:25;;;;;;;3.20;1.83;;;14.30;99.90;;;;;;4993893;28;20031;-39
2023/10/25 07:00:52;;;;;;;2.13;1.77;;;14.30;99.90;;;;;;4993985;28;20088;-40
2023/10/25 07:03:20;;;;;;;2.70;1.92;;;14.40;99.90;;;;;;4993945;28;20045;-38
2023/10/25 07:05:48;;;;;;;2.47;1.75;;;14.40;99.90;;;;;;4993898;28;20019;-39
2023/10/25 07:08:13;;;;;;;1.77;1.50;;;14.40;99.90;;;;;;4993775;28;20027;-38
2023/10/25 07:10:39;;;;;;;1.80;1.50;;;14.50;99.90;;;;;;4993806;28;20037;-39
2023/10/25 07:13:05;;;;;;;1.65;1.40;;;14.50;99.90;;;;;;4993528;28;20388;-39
2023/10/25 07:15:32;;;;;;;1.88;1.30;;;14.50;99.90;;;;;;4993642;28;20034;-37
2023/10/25 07:17:58;;;;;;;1.75;1.30;;;14.50;99.90;;;;;;4993591;28;20026;-38
2023/10/25 07:20:24;;;;;;;2.13;1.42;;;14.60;99.90;;;;;;4993567;28;20034;-39
2023/10/25 07:22:49;;;;;;;2.22;1.23;;;14.60;99.90;;;;;;4993497;28;20420;-40
2023/10/25 07:25:16;;;;;;;2.55;1.23;;;14.70;99.90;;;;;;4993439;28;20024;-37
2023/10/25 07:27:41;;;;;;;1.90;1.27;;;14.70;99.90;;;;;;4993326;28;20049;-38
2023/10/25 07:30:07;;;;;;;1.70;1.27;;;14.70;99.90;;;;;;4993665;28;20654;-39
2023/10/25 07:32:35;;;;;;;1.70;1.23;;;14.70;99.90;;;;;;4993279;28;20041;-37
2023/10/25 07:35:00;;;;;;;2.83;1.48;;;14.80;99.90;;;;;;4993252;28;20030;-37
2023/10/25 07:37:26;;;;;;;1.63;1.20;;;14.80;99.90;;;;;;4993235;28;20488;-40
2023/10/25 07:39:51;;;;;;;1.80;1.10;;;14.80;99.90;;;;;;4993259;28;20031;-37
2023/10/25 07:42:17;;;;;;;1.60;1.25;;;14.80;99.90;;;;;;4992911;28;20034;-39
2023/10/25 07:44:43;;;;;;;1.52;1.17;;;14.90;99.90;;;;;;4993885;28;20033;-39
2023/10/25 07:47:08;;;;;;;1.70;1.00;;;14.90;99.90;;;;;;4993047;28;20058;-39
2023/10/25 07:49:35;;;;;;;1.60;1.00;;;14.90;99.90;;;;;;4993100;28;20066;-37
2023/10/25 07:52:01;;;;;;;1.85;1.15;;;14.90;99.90;;;;;;4993310;28;20068;-40
2023/10/25 07:54:26;;;;;;;2.85;1.15;;;14.90;99.90;;;;;;4992831;28;20492;-40
2023/10/25 07:56:52;;;;;;;1.60;1.15;;;14.90;99.90;;;;;;4992667;28;20033;-38
2023/10/25 07:59:17;;;;;;;1.27;0.95;;;14.90;99.90;;;;;;4992834;28;20038;-37
2023/10/25 08:01:43;;;;;;;1.40;1.20;;;14.90;99.90;;;;;;4992446;28;20523;-40
2023/10/25 08:04:09;;;;;;;1.30;1.00;;;15.00;99.90;;;;;;4992716;28;20050;-40
2023/10/25 08:06:34;;;;;;;2.10;1.13;;;15.00;99.90;;;;;;4992573;28;20478;-39
2023/10/25 08:09:00;;;;;;;1.27;1.08;;;15.00;99.90;;;;;;4992909;28;20337;-40
2023/10/25 08:11:26;;;;;;;1.05;0.90;;;14.90;99.90;;;;;;4992517;28;20439;-37
2023/10/25 08:13:52;;;;;;;2.65;1.00;;;15.00;99.90;;;;;;4992843;28;20076;-41
2023/10/25 08:16:17;;;;;;;2.03;1.10;;;15.00;99.90;;;;;;4992663;28;20031;-39
2023/10/25 08:18:43;;;;;;;2.13;1.10;;;15.00;99.90;;;;;;4992567;28;20369;-39
2023/10/25 08:21:13;;;;;;;1.20;0.93;;;15.00;99.90;;;;;;4992473;28;20514;-40
2023/10/25 08:23:39;;;;;;;1.35;0.93;;;15.00;99.90;;;;;;4992350;28;20029;-37
2023/10/25 08:26:05;;;;;;;1.50;0.80;;;14.90;99.90;;;;;;4992269;28;20027;-37
2023/10/25 08:28:30;;;;;;;2.13;1.10;;;14.90;99.90;;;;;;4992356;28;20096;-37
2023/10/25 08:30:56;;;;;;;2.00;0.88;;;14.90;99.90;;;;;;4992725;28;20095;-39
2023/10/25 08:33:22;;;;;;;4.75;0.80;;;14.90;99.90;;;;;;4992262;28;20492;-37
2023/10/25 08:35:47;;;;;;;2.05;1.10;;;14.90;99.90;;;;;;4992167;28;20045;-40
2023/10/25 08:38:13;;;;;;;1.10;0.95;;;14.90;99.90;;;;;;4992245;28;20496;-41
2023/10/25 08:40:43;;;;;;;0.93;0.70;;;14.80;99.90;;;;;;4992022;28;20081;-37
2023/10/25 08:43:09;;;;;;;0.88;0.80;;;14.80;99.90;;;;;;4992056;28;20038;-40
2023/10/25 08:45:35;;;;;;;2.05;1.00;;;14.80;99.90;;;;;;4992148;28;20026;-39
2023/10/25 08:48:03;;;;;;;1.42;0.85;;;14.80;99.90;;;;;;4992167;28;20026;-40
2023/10/25 08:50:30;;;;;;;2.25;1.05;;;14.80;99.90;;;;;;4992044;28;20022;-39
2023/10/25 08:52:57;;;;;;;4.80;0.95;;;14.80;99.90;;;;;;4991836;28;20030;-40
2023/10/25 08:55:23;;;;;;;4.40;1.10;;;14.80;99.90;;;;;;4991982;28;20038;-38
2023/10/25 08:57:54;;;;;;;2.97;1.20;;;14.80;99.90;;;;;;4992024;28;20034;-38
2023/10/25 09:00:20;;;;;;;2.97;1.20;;;14.80;99.90;;;;;;4991933;28;20023;-39
2023/10/25 09:02:46;;;;;;;6.18;1.20;;;14.70;99.90;;;;;;4991910;28;20022;-42
2023/10/25 09:05:12;;;;;;;3.85;1.30;;;14.70;99.90;;;;;;4991789;28;20053;-39
2023/10/25 09:07:38;;;;;;;2.97;1.17;;;14.70;99.90;;;;;;4991705;28;20026;-39
2023/10/25 09:10:11;;;;;;;3.05;0.90;;;14.70;99.90;;;;;;4991961;28;20038;-37
2023/10/25 09:12:37;;;;;;;2.17;1.20;;;14.70;99.90;;;;;;4991934;28;20037;-38
2023/10/25 09:15:03;;;;;;;2.78;1.15;;;14.70;99.90;;;;;;4995125;28;20026;-40
2023/10/25 09:17:31;;;;;;;1.90;1.02;;;14.70;99.90;;;;;;4996253;28;20026;-39
2023/10/25 09:19:56;;;;;;;3.85;1.30;;;14.70;99.90;;;;;;4995724;28;20065;-40
2023/10/25 09:22:27;;;;;;;1.60;1.02;;;14.70;99.90;;;;;;4995703;28;20043;-41
2023/10/25 09:25:00;;;;;;;2.58;1.13;;;14.70;99.90;;;;;;4995738;28;20411;-39
2023/10/25 09:27:27;;;;;;;3.35;1.30;;;14.70;99.90;;;;;;4995798;28;20105;-39
2023/10/25 09:29:53;;;;;;;3.95;1.20;;;14.70;99.90;;;;;;4995679;28;20033;-41
2023/10/25 09:32:20;;;;;;;1.48;1.23;;;14.70;99.90;;;;;;4995549;28;20030;-39
2023/10/25 09:34:47;;;;;;;3.85;1.20;;;14.70;99.90;;;;;;4995311;28;20053;-38
2023/10/25 09:37:13;;;;;;;3.17;1.00;;;14.70;99.90;;;;;;4995484;28;20061;-39
2023/10/25 09:39:39;;;;;;;1.88;1.08;;;14.70;99.90;;;;;;4995471;28;20065;-39
2023/10/25 09:42:07;;;;;;;2.78;1.10;;;14.70;99.90;;;;;;4995428;28;20041;-40
2023/10/25 09:44:45;;;;;;;2.03;1.20;;;14.70;99.90;;;;;;4995404;28;20058;-39
2023/10/25 09:47:15;;;;;;;2.90;1.17;;;14.70;99.90;;;;;;4995195;28;20054;-38
2023/10/25 09:49:43;;;;;;;1.45;1.02;;;14.70;99.90;;;;;;4995255;28;20046;-39
2023/10/25 09:52:19;;;;;;;1.90;1.20;;;14.80;99.90;;;;;;4995201;28;20072;-38
2023/10/25 09:54:52;;;;;;;2.17;1.27;;;14.80;99.90;;;;;;4995239;28;20034;-39
2023/10/25 09:57:18;;;;;;;1.83;1.00;;;14.80;99.90;;;;;;4995245;28;20030;-40
2023/10/25 09:59:45;;;;;;;2.10;1.25;;;14.80;99.90;;;;;;4995254;28;20022;-39
2023/10/25 10:02:19;;;;;;;1.33;1.10;;;14.80;99.90;;;;;;4995018;28;20403;-37
2023/10/25 10:05:03;;;;;;;;;;;14.90;99.90;;;;;;4995476;28;20022;-41
2023/10/25 10:07:37;;;;;;;1.90;1.10;;;14.80;99.90;;;;;;4994956;28;20000;-41
2023/10/25 10:10:48;;;;;;;2.55;1.10;;;14.80;99.90;;;;;;4994919;28;20492;-41
2023/10/25 10:13:18;;;;;;;1.85;1.10;;;14.90;99.90;;;;;;4981762;28;20407;-41
2023/10/25 10:16:09;;;;;;;1.42;0.82;;;14.80;99.90;;;;;;4994698;28;20101;-39
2023/10/25 10:18:41;;;;;;;2.83;1.33;;;14.80;99.90;;;;;;4994676;28;20027;-39
2023/10/25 10:21:09;;;;;;;2.58;1.00;;;14.80;99.90;;;;;;4994819;28;20077;-39
2023/10/25 10:23:49;;;;;;;1.85;1.00;;;14.80;99.90;;;;;;4994667;28;20046;-39
2023/10/25 10:26:47;;;;;;;2.13;1.00;;;14.80;99.90;;;;;;4994622;28;20018;-38
2023/10/25 10:29:31;;;;;;;2.33;1.00;;;14.80;99.90;;;;;;4994697;28;20068;-41
2023/10/25 10:32:01;;;;;;;3.03;1.20;;;14.80;99.90;;;;;;4994614;28;20024;-39
2023/10/25 10:34:48;;;;;;;1.83;1.20;;;14.90;99.90;;;;;;4994411;28;20030;-37
2023/10/25 10:37:19;;;;;;;2.83;1.25;;;14.90;99.90;;;;;;4994313;28;20069;-39
2023/10/25 10:39:56;;;;;;;1.77;1.00;;;14.80;99.90;;;;;;4994472;28;20037;-39
2023/10/25 10:42:34;;;;;;;1.15;1.00;;;14.90;99.90;;;;;;4994132;28;20026;-39
2023/10/25 10:45:06;;;;;;;2.42;1.20;;;14.90;99.90;;;;;;4994220;28;20022;-40
2023/10/25 10:47:38;;;;;;;2.35;1.33;;;14.90;99.90;;;;;;4994042;28;20033;-40
2023/10/25 10:50:18;;;;;;;2.03;0.98;;;14.80;99.90;;;;;;4994250;28;20511;-41
2023/10/25 10:52:45;;;;;;;1.50;1.10;;;14.80;99.90;;;;;;4994037;28;20476;-37
2023/10/25 10:55:16;;;;;;;1.45;1.00;;;14.90;99.90;;;;;;4994364;28;20034;-40
2023/10/25 10:57:42;;;;;;;2.25;1.00;;;14.80;99.90;;;;;;4994000;28;20109;-43
2023/10/25 11:00:09;;;;;;;2.25;1.92;;;14.80;99.90;;;;;;4989453;28;20122;-39
2023/10/25 11:02:36;;;;;;;3.33;1.70;;;14.80;99.90;;;;;;4993965;28;20035;-39
2023/10/25 11:05:03;;;;;;;2.25;1.70;;;14.70;99.90;;;;;;4993995;28;20128;-37
2023/10/25 11:07:29;;;;;;;3.63;1.73;;;14.70;99.90;;;;;;4993915;28;20026;-37
2023/10/25 11:09:55;;;;;;;3.47;1.67;;;14.70;99.90;;;;;;4993873;28;20023;-36
2023/10/25 11:12:20;;;;;;;3.58;1.75;;;14.70;99.90;;;;;;4994254;28;20137;-39
2023/10/25 11:14:48;;;;;;;1.80;1.58;;;14.70;99.90;;;;;;4993817;28;20085;-39
2023/10/25 11:17:14;;;;;;;2.35;1.42;;;14.70;99.90;;;;;;4993562;28;20072;-40
2023/10/25 11:19:41;;;;;;;1.95;1.48;;;14.70;99.90;;;;;;4993602;28;20030;-39
2023/10/25 11:22:07;;;;;;;1.98;1.30;;;14.70;99.90;;;;;;4993550;28;20026;-41
2023/10/25 11:24:35;;;;;;;1.60;1.30;;;14.70;99.90;;;;;;4993584;28;20045;-39
2023/10/25 11:27:02;;;;;;;3.05;1.58;;;14.80;99.90;;;;;;4993313;28;20070;-37
2023/10/25 11:29:30;;;;;;;1.98;1.30;;;14.80;99.90;;;;;;4993717;28;20397;-39
2023/10/25 11:32:00;;;;;;;1.85;1.20;;;14.80;99.90;;;;;;4993390;28;20033;-39
2023/10/25 11:34:30;;;;;;;2.35;1.13;;;14.80;99.90;;;;;;4993361;28;20022;-40
2023/10/25 11:36:56;;;;;;;2.65;1.27;;;14.80;99.90;;;;;;4992449;28;20039;-39
2023/10/25 11:39:22;;;;;;;2.10;1.33;;;14.80;99.90;;;;;;4993331;28;20097;-39
2023/10/25 11:41:47;;;;;;;2.10;1.13;;;14.90;99.90;;;;;;4993214;28;20038;-37
2023/10/25 11:44:19;;;;;;;2.15;1.02;;;14.90;99.90;;;;;;4993091;28;20032;-38
2023/10/25 11:46:45;;;;;;;1.83;1.30;;;14.90;99.90;;;;;;4993273;28;20349;-41
2023/10/25 11:49:11;;;;;;;1.25;0.98;;;14.90;99.90;;;;;;4993241;28;20031;-39
2023/10/25 11:51:37;;;;;;;1.45;0.95;;;14.90;99.90;;;;;;4993087;28;20476;-39
2023/10/25 11:54:04;;;;;;;1.65;1.10;;;14.90;99.90;;;;;;4992919;28;20036;-39
2023/10/25 11:56:30;;;;;;;1.67;1.13;;;14.90;99.90;;;;;;4992610;28;20046;-37
2023/10/25 11:58:56;;;;;;;2.30;1.13;;;14.90;99.90;;;;;;4992981;28;20026;-37
2023/10/25 12:01:22;;;;;;;2.30;1.10;;;15.00;99.90;;;;;;4992755;28;20100;-41
2023/10/25 12:03:47;;;;;;;1.77;0.98;;;15.00;99.90;;;;;;4992787;28;20103;-39
2023/10/25 12:06:13;;;;;;;1.27;1.05;;;14.90;99.90;;;;;;4992645;28;20419;-42
2023/10/25 12:08:40;;;;;;;1.58;1.00;;;14.90;99.90;;;;;;4992764;28;20026;-42
2023/10/25 12:11:10;;;;;;;2.17;1.38;;;14.90;99.90;;;;;;4992586;28;20523;-36
2023/10/25 12:13:37;;;;;;;1.60;1.00;;;14.90;99.90;;;;;;4992681;28;20023;-41
2023/10/25 12:16:03;;;;;;;2.53;1.20;;;14.90;99.90;;;;;;4992471;28;20029;-39
2023/10/25 12:18:33;;;;;;;1.48;0.93;;;14.90;99.90;;;;;;4992535;28;20385;-37
2023/10/25 12:21:08;;;;;;;2.15;1.13;;;14.90;99.90;;;;;;4992504;28;20034;-40
2023/10/25 12:23:34;;;;;;;3.33;1.00;;;15.00;99.90;;;;;;4992331;28;20015;-41
2023/10/25 12:26:00;;;;;;;2.13;1.05;;;15.00;99.90;;;;;;4992402;28;20033;-41
2023/10/25 12:28:26;;;;;;;1.65;1.08;;;15.00;99.90;;;;;;4992366;28;20480;-40
2023/10/25 12:30:52;;;;;;;1.13;0.90;;;14.90;99.90;;;;;;4992297;28;20038;-41
2023/10/25 12:33:18;;;;;;;1.75;1.05;;;15.00;99.90;;;;;;4992298;28;20045;-39
2023/10/25 12:35:44;;;;;;;1.00;0.80;;;15.00;99.90;;;;;;4992198;28;20034;-41
2023/10/25 12:38:10;;;;;;;2.08;1.05;;;14.90;99.90;;;;;;4992113;28;20037;-40
2023/10/25 12:40:36;;;;;;;2.08;1.00;;;14.90;99.90;;;;;;4992144;28;20038;-39
2023/10/25 12:43:02;;;;;;;1.67;0.93;;;14.90;99.90;;;;;;4992068;28;20065;-40
2023/10/25 12:45:28;;;;;;;2.53;0.90;;;15.00;99.90;;;;;;4992099;28;20030;-41
2023/10/25 12:47:54;;;;;;;1.80;1.27;;;14.90;99.90;;;;;;4992072;28;20092;-39